PWSweather.com
Personal Weather Stations
Station Observations
IDLEWOOD
Jockey Club, North Port, FL 34287

Jockey ClubNorth Port, FL 34287

Lat: 27.06008, Lon: -82.23958

Elevation: 13

Station Type: WeatherFlow

https://smartweather.weatherflow.com/share/4785/grid

Latest ConditionsUpdated 6:10:24 PM EDT Friday, Oct 18, 2019
Currently Today's Max Today's Min Today's Average
Temperature 80.9°F27.2°C 83.5°F28.6°C 71.8°F22.1°C 77.1°F25.1°C
Dew Point 76.3°F24.6°C 77.0°F25.0°C 68.4°F20.2°C 72.3°F22.4°C
Winds 2.3 mph ESE3.7 kmh ESE 4.9 mph -7.9 kmh - - 1.8 mph 2.9 kmh
Wind Gusts 5.1 mph8.2 kmh 9.5 mph15.3 kmh - -
Humidity 86% 91% 76% 85%
Pressure 29.84 in1010.5 mb 29.94 in1013.9 mb 29.84 in1010.5 mb -
Hour Temp Dew Point Humidity Winds Wind Gusts Pressure Precip Precip Rate Daily Precip Total
06:10 PM 80.9°F27.2°C 76.3°F24.6°C 86% 2.3 mph ESE3.7 kmh ESE 5.1 mph8.2 kmh 29.84 in1010.5 mb 0.00 in0.0 mm 0.00 in0.0 mm 0.00 in0.0 mm
06:05 PM 81.1°F27.3°C 76.5°F24.7°C 86% 2.3 mph SE3.7 kmh SE 4.6 mph7.4 kmh 29.84 in1010.5 mb 0.00 in0.0 mm 0.00 in0.0 mm 0.00 in0.0 mm
06:00 PM 81.3°F27.4°C 76.3°F24.6°C 85% 2.4 mph SE3.9 kmh SE 4.9 mph7.9 kmh 29.84 in1010.5 mb 0.00 in0.0 mm 0.00 in0.0 mm 0.00 in0.0 mm
05:55 PM 81.4°F27.4°C 76.5°F24.7°C 85% 1.9 mph E3.1 kmh E 5.9 mph9.5 kmh 29.85 in1010.8 mb 0.00 in0.0 mm 0.00 in0.0 mm 0.00 in0.0 mm
05:50 PM 81.6°F27.6°C 76.3°F24.6°C 84% 2.8 mph ESE4.5 kmh ESE 6.4 mph10.3 kmh 29.85 in1010.8 mb 0.00 in0.0 mm 0.00 in0.0 mm 0.00 in0.0 mm
05:45 PM 81.8°F27.7°C 76.5°F24.7°C 84% 2.7 mph SE4.3 kmh SE 5.6 mph9.0 kmh 29.85 in1010.8 mb 0.00 in0.0 mm 0.00 in0.0 mm 0.00 in0.0 mm
05:40 PM 82.0°F27.8°C 76.7°F24.8°C 84% 1.6 mph E2.6 kmh E 4.0 mph6.4 kmh 29.85 in1010.8 mb 0.00 in0.0 mm 0.00 in0.0 mm 0.00 in0.0 mm
05:35 PM 82.1°F27.8°C 76.8°F24.9°C 84% 2.1 mph ESE3.4 kmh ESE 4.0 mph6.4 kmh 29.85 in1010.8 mb 0.00 in0.0 mm 0.00 in0.0 mm 0.00 in0.0 mm
05:30 PM 82.2°F27.9°C 76.9°F24.9°C 84% 1.7 mph NE2.7 kmh NE 3.9 mph6.3 kmh 29.85 in1010.8 mb 0.00 in0.0 mm 0.00 in0.0 mm 0.00 in0.0 mm
05:25 PM 82.3°F27.9°C 76.6°F24.8°C 83% 1.9 mph E3.1 kmh E 4.7 mph7.6 kmh 29.85 in1010.8 mb 0.00 in0.0 mm 0.00 in0.0 mm 0.00 in0.0 mm
05:20 PM 82.4°F28.0°C 77.0°F25.0°C 84% 2.1 mph E3.4 kmh E 4.5 mph7.2 kmh 29.85 in1010.8 mb 0.00 in0.0 mm 0.00 in0.0 mm 0.00 in0.0 mm
05:15 PM 82.4°F28.0°C 77.0°F25.0°C 84% 2.1 mph E3.4 kmh E 4.6 mph7.4 kmh 29.85 in1010.8 mb 0.00 in0.0 mm 0.00 in0.0 mm 0.00 in0.0 mm
05:10 PM 82.3°F27.9°C 77.0°F25.0°C 84% 1.4 mph E2.3 kmh E 3.5 mph5.6 kmh 29.85 in1010.8 mb 0.00 in0.0 mm 0.00 in0.0 mm 0.00 in0.0 mm
05:05 PM 82.2°F27.9°C 76.9°F24.9°C 84% 1.9 mph SE3.1 kmh SE 5.0 mph8.0 kmh 29.86 in1011.2 mb 0.00 in0.0 mm 0.00 in0.0 mm 0.00 in0.0 mm
05:00 PM 82.1°F27.8°C 76.8°F24.9°C 84% 0.9 mph N1.4 kmh N 3.1 mph5.0 kmh 29.86 in1011.2 mb 0.00 in0.0 mm 0.00 in0.0 mm 0.00 in0.0 mm
04:55 PM 81.9°F27.7°C 76.6°F24.8°C 84% 0.6 mph SE1.0 kmh SE 5.1 mph8.2 kmh 29.86 in1011.2 mb 0.00 in0.0 mm 0.00 in0.0 mm 0.00 in0.0 mm
04:50 PM 81.7°F27.6°C 76.8°F24.9°C 85% 0.8 mph ESE1.3 kmh ESE 2.8 mph4.5 kmh 29.86 in1011.2 mb 0.00 in0.0 mm 0.00 in0.0 mm 0.00 in0.0 mm
04:45 PM 81.5°F27.5°C 76.2°F24.6°C 84% 1.0 mph E1.6 kmh E 3.2 mph5.1 kmh 29.86 in1011.2 mb 0.00 in0.0 mm 0.00 in0.0 mm 0.00 in0.0 mm
04:40 PM 81.4°F27.4°C 76.4°F24.7°C 85% 0.3 mph N0.5 kmh N 2.4 mph3.9 kmh 29.86 in1011.2 mb 0.00 in0.0 mm 0.00 in0.0 mm 0.00 in0.0 mm
04:35 PM 81.4°F27.4°C 76.4°F24.7°C 85% 0.7 mph ESE1.1 kmh ESE 2.8 mph4.5 kmh 29.86 in1011.2 mb 0.00 in0.0 mm 0.00 in0.0 mm 0.00 in0.0 mm
04:30 PM 81.3°F27.4°C 76.4°F24.7°C 85% 0.5 mph ESE0.8 kmh ESE 2.4 mph3.9 kmh 29.86 in1011.2 mb 0.00 in0.0 mm 0.00 in0.0 mm 0.00 in0.0 mm
04:25 PM 81.3°F27.4°C 76.4°F24.7°C 85% 0.9 mph ESE1.4 kmh ESE 3.1 mph5.0 kmh 29.86 in1011.2 mb 0.00 in0.0 mm 0.00 in0.0 mm 0.00 in0.0 mm
04:20 PM 81.3°F27.4°C 76.0°F24.4°C 84% 1.4 mph SE2.3 kmh SE 2.9 mph4.7 kmh 29.86 in1011.2 mb 0.00 in0.0 mm 0.00 in0.0 mm 0.00 in0.0 mm
04:15 PM 81.4°F27.4°C 76.1°F24.5°C 84% 0.4 mph ESE0.6 kmh ESE 2.5 mph4.0 kmh 29.86 in1011.2 mb 0.00 in0.0 mm 0.00 in0.0 mm 0.00 in0.0 mm
04:10 PM 81.5°F27.5°C 76.2°F24.6°C 84% 1.0 mph S1.6 kmh S 2.7 mph4.3 kmh 29.85 in1010.8 mb 0.00 in0.0 mm 0.00 in0.0 mm 0.00 in0.0 mm
04:05 PM 81.6°F27.6°C 76.3°F24.6°C 84% 1.4 mph SE2.3 kmh SE 3.0 mph4.8 kmh 29.85 in1010.8 mb 0.00 in0.0 mm 0.00 in0.0 mm 0.00 in0.0 mm
04:00 PM 81.6°F27.6°C 76.3°F24.6°C 84% 0.6 mph ESE1.0 kmh ESE 4.0 mph6.4 kmh 29.86 in1011.2 mb 0.00 in0.0 mm 0.00 in0.0 mm 0.00 in0.0 mm
03:55 PM 81.7°F27.6°C 76.4°F24.7°C 84% 1.4 mph ENE2.3 kmh ENE 4.0 mph6.4 kmh 29.86 in1011.2 mb 0.00 in0.0 mm 0.00 in0.0 mm 0.00 in0.0 mm
03:50 PM 81.8°F27.7°C 76.5°F24.7°C 84% 0.6 mph ESE1.0 kmh ESE 2.6 mph4.2 kmh 29.86 in1011.2 mb 0.00 in0.0 mm 0.00 in0.0 mm 0.00 in0.0 mm
03:45 PM 81.9°F27.7°C 76.2°F24.6°C 83% 1.1 mph E1.8 kmh E 2.8 mph4.5 kmh 29.86 in1011.2 mb 0.00 in0.0 mm 0.00 in0.0 mm 0.00 in0.0 mm
03:40 PM 81.9°F27.7°C 76.2°F24.6°C 83% 1.4 mph SE2.3 kmh SE 2.9 mph4.7 kmh 29.86 in1011.2 mb 0.00 in0.0 mm 0.00 in0.0 mm 0.00 in0.0 mm
03:35 PM 81.9°F27.7°C 76.2°F24.6°C 83% 1.4 mph SE2.3 kmh SE 3.4 mph5.5 kmh 29.86 in1011.2 mb 0.00 in0.0 mm 0.00 in0.0 mm 0.00 in0.0 mm
03:30 PM 81.8°F27.7°C 76.2°F24.6°C 83% 2.1 mph E3.4 kmh E 5.0 mph8.0 kmh 29.86 in1011.2 mb 0.00 in0.0 mm 0.00 in0.0 mm 0.00 in0.0 mm
03:25 PM 81.9°F27.7°C 75.8°F24.3°C 82% 2.9 mph SE4.7 kmh SE 5.9 mph9.5 kmh 29.86 in1011.2 mb 0.00 in0.0 mm 0.00 in0.0 mm 0.00 in0.0 mm
03:20 PM 81.9°F27.7°C 75.9°F24.4°C 82% 1.7 mph SE2.7 kmh SE 3.5 mph5.6 kmh 29.86 in1011.2 mb 0.00 in0.0 mm 0.00 in0.0 mm 0.00 in0.0 mm
03:15 PM 82.0°F27.8°C 75.9°F24.4°C 82% 1.8 mph SE2.9 kmh SE 4.3 mph6.9 kmh 29.86 in1011.2 mb 0.00 in0.0 mm 0.00 in0.0 mm 0.00 in0.0 mm
03:10 PM 82.0°F27.8°C 75.9°F24.4°C 82% 1.4 mph SE2.3 kmh SE 4.8 mph7.7 kmh 29.86 in1011.2 mb 0.00 in0.0 mm 0.00 in0.0 mm 0.00 in0.0 mm
03:05 PM 82.1°F27.8°C 76.0°F24.4°C 82% 2.5 mph E4.0 kmh E 5.4 mph8.7 kmh 29.85 in1010.8 mb 0.00 in0.0 mm 0.00 in0.0 mm 0.00 in0.0 mm
03:00 PM 82.4°F28.0°C 76.3°F24.6°C 82% 2.0 mph ENE3.2 kmh ENE 7.7 mph12.4 kmh 29.85 in1010.8 mb 0.00 in0.0 mm 0.00 in0.0 mm 0.00 in0.0 mm
02:55 PM 82.4°F28.0°C 76.0°F24.4°C 81% 1.4 mph SE2.3 kmh SE 3.9 mph6.3 kmh 29.86 in1011.2 mb 0.00 in0.0 mm 0.00 in0.0 mm 0.00 in0.0 mm
02:50 PM 82.5°F28.1°C 76.0°F24.4°C 81% 1.3 mph ENE2.1 kmh ENE 4.5 mph7.2 kmh 29.86 in1011.2 mb 0.00 in0.0 mm 0.00 in0.0 mm 0.00 in0.0 mm
02:45 PM 82.6°F28.1°C 75.8°F24.3°C 80% 1.7 mph ESE2.7 kmh ESE 5.0 mph8.0 kmh 29.86 in1011.2 mb 0.00 in0.0 mm 0.00 in0.0 mm 0.00 in0.0 mm
02:40 PM 82.8°F28.2°C 76.0°F24.4°C 80% 1.9 mph E3.1 kmh E 4.0 mph6.4 kmh 29.86 in1011.2 mb 0.00 in0.0 mm 0.00 in0.0 mm 0.00 in0.0 mm
02:35 PM 82.9°F28.3°C 76.1°F24.5°C 80% 1.5 mph ESE2.4 kmh ESE 4.6 mph7.4 kmh 29.87 in1011.5 mb 0.00 in0.0 mm 0.00 in0.0 mm 0.00 in0.0 mm
02:30 PM 83.0°F28.3°C 75.8°F24.3°C 79% 1.7 mph ENE2.7 kmh ENE 4.5 mph7.2 kmh 29.88 in1011.9 mb 0.00 in0.0 mm 0.00 in0.0 mm 0.00 in0.0 mm
02:25 PM 83.2°F28.4°C 76.0°F24.4°C 79% 1.9 mph ENE3.1 kmh ENE 4.3 mph6.9 kmh 29.88 in1011.9 mb 0.00 in0.0 mm 0.00 in0.0 mm 0.00 in0.0 mm
02:20 PM 83.3°F28.5°C 75.7°F24.3°C 78% 2.1 mph E3.4 kmh E 5.5 mph8.9 kmh 29.88 in1011.9 mb 0.00 in0.0 mm 0.00 in0.0 mm 0.00 in0.0 mm
02:15 PM 83.4°F28.6°C 76.2°F24.6°C 79% 1.8 mph E2.9 kmh E 3.8 mph6.1 kmh 29.88 in1011.9 mb 0.00 in0.0 mm 0.00 in0.0 mm 0.00 in0.0 mm
02:10 PM 83.4°F28.6°C 75.9°F24.4°C 78% 1.1 mph NE1.8 kmh NE 3.6 mph5.8 kmh 29.89 in1012.2 mb 0.00 in0.0 mm 0.00 in0.0 mm 0.00 in0.0 mm
02:05 PM 83.5°F28.6°C 76.3°F24.6°C 79% 1.6 mph ENE2.6 kmh ENE 4.6 mph7.4 kmh 29.89 in1012.2 mb 0.00 in0.0 mm 0.00 in0.0 mm 0.00 in0.0 mm
02:00 PM 83.3°F28.5°C 75.8°F24.3°C 78% 1.9 mph E3.1 kmh E 4.8 mph7.7 kmh 29.89 in1012.2 mb 0.00 in0.0 mm 0.00 in0.0 mm 0.00 in0.0 mm
01:55 PM 83.4°F28.6°C 75.8°F24.3°C 78% 2.3 mph ENE3.7 kmh ENE 4.9 mph7.9 kmh 29.89 in1012.2 mb 0.00 in0.0 mm 0.00 in0.0 mm 0.00 in0.0 mm
01:50 PM 83.3°F28.5°C 75.8°F24.3°C 78% 1.8 mph E2.9 kmh E 4.3 mph6.9 kmh 29.90 in1012.5 mb 0.00 in0.0 mm 0.00 in0.0 mm 0.00 in0.0 mm
01:45 PM 83.4°F28.6°C 75.8°F24.3°C 78% 2.1 mph E3.4 kmh E 4.3 mph6.9 kmh 29.90 in1012.5 mb 0.00 in0.0 mm 0.00 in0.0 mm 0.00 in0.0 mm
01:40 PM 83.5°F28.6°C 75.9°F24.4°C 78% 2.2 mph SE3.5 kmh SE 5.1 mph8.2 kmh 29.90 in1012.5 mb 0.00 in0.0 mm 0.00 in0.0 mm 0.00 in0.0 mm
01:35 PM 83.4°F28.6°C 75.8°F24.3°C 78% 1.2 mph ESE1.9 kmh ESE 4.2 mph6.8 kmh 29.90 in1012.5 mb 0.00 in0.0 mm 0.00 in0.0 mm 0.00 in0.0 mm
01:30 PM 83.5°F28.6°C 75.9°F24.4°C 78% 1.8 mph E2.9 kmh E 5.0 mph8.0 kmh 29.90 in1012.5 mb 0.00 in0.0 mm 0.00 in0.0 mm 0.00 in0.0 mm
01:25 PM 83.5°F28.6°C 76.0°F24.4°C 78% 2.8 mph E4.5 kmh E 5.8 mph9.3 kmh 29.90 in1012.5 mb 0.00 in0.0 mm 0.00 in0.0 mm 0.00 in0.0 mm
01:20 PM 83.5°F28.6°C 75.9°F24.4°C 78% 2.1 mph ESE3.4 kmh ESE 3.7 mph6.0 kmh 29.90 in1012.5 mb 0.00 in0.0 mm 0.00 in0.0 mm 0.00 in0.0 mm
01:15 PM 83.5°F28.6°C 75.9°F24.4°C 78% 1.3 mph E2.1 kmh E 3.5 mph5.6 kmh 29.90 in1012.5 mb 0.00 in0.0 mm 0.00 in0.0 mm 0.00 in0.0 mm
01:10 PM 83.3°F28.5°C 75.7°F24.3°C 78% 2.0 mph SE3.2 kmh SE 4.0 mph6.4 kmh 29.90 in1012.5 mb 0.00 in0.0 mm 0.00 in0.0 mm 0.00 in0.0 mm
01:05 PM 83.1°F28.4°C 75.6°F24.2°C 78% 2.2 mph E3.5 kmh E 4.6 mph7.4 kmh 29.91 in1012.9 mb 0.00 in0.0 mm 0.00 in0.0 mm 0.00 in0.0 mm
01:00 PM 83.2°F28.4°C 75.6°F24.2°C 78% 2.3 mph ENE3.7 kmh ENE 5.5 mph8.9 kmh 29.91 in1012.9 mb 0.00 in0.0 mm 0.00 in0.0 mm 0.00 in0.0 mm
12:55 PM 83.1°F28.4°C 75.5°F24.2°C 78% 2.0 mph ESE3.2 kmh ESE 5.9 mph9.5 kmh 29.91 in1012.9 mb 0.00 in0.0 mm 0.00 in0.0 mm 0.00 in0.0 mm
12:50 PM 83.2°F28.4°C 75.6°F24.2°C 78% 1.9 mph ENE3.1 kmh ENE 4.3 mph6.9 kmh 29.91 in1012.9 mb 0.00 in0.0 mm 0.00 in0.0 mm 0.00 in0.0 mm
12:45 PM 83.1°F28.4°C 75.5°F24.2°C 78% 1.8 mph SE2.9 kmh SE 4.3 mph6.9 kmh 29.91 in1012.9 mb 0.00 in0.0 mm 0.00 in0.0 mm 0.00 in0.0 mm
12:40 PM 83.0°F28.3°C 75.4°F24.1°C 78% 2.2 mph SE3.5 kmh SE 4.7 mph7.6 kmh 29.91 in1012.9 mb 0.00 in0.0 mm 0.00 in0.0 mm 0.00 in0.0 mm
12:35 PM 83.0°F28.3°C 75.4°F24.1°C 78% 1.6 mph E2.6 kmh E 4.5 mph7.2 kmh 29.91 in1012.9 mb 0.00 in0.0 mm 0.00 in0.0 mm 0.00 in0.0 mm
12:30 PM 83.0°F28.3°C 75.4°F24.1°C 78% 2.7 mph SE4.3 kmh SE 4.9 mph7.9 kmh 29.91 in1012.9 mb 0.00 in0.0 mm 0.00 in0.0 mm 0.00 in0.0 mm
12:25 PM 82.8°F28.2°C 74.9°F23.8°C 77% 3.4 mph SE5.5 kmh SE 7.4 mph11.9 kmh 29.91 in1012.9 mb 0.00 in0.0 mm 0.00 in0.0 mm 0.00 in0.0 mm
12:20 PM 82.9°F28.3°C 74.9°F23.8°C 77% 4.5 mph SE7.2 kmh SE 8.6 mph13.8 kmh 29.91 in1012.9 mb 0.00 in0.0 mm 0.00 in0.0 mm 0.00 in0.0 mm
12:15 PM 83.0°F28.3°C 74.7°F23.7°C 76% 4.8 mph SE7.7 kmh SE 8.7 mph14.0 kmh 29.92 in1013.2 mb 0.00 in0.0 mm 0.00 in0.0 mm 0.00 in0.0 mm
12:10 PM 83.1°F28.4°C 75.2°F24.0°C 77% 4.3 mph SSE6.9 kmh SSE 8.0 mph12.9 kmh 29.92 in1013.2 mb 0.00 in0.0 mm 0.00 in0.0 mm 0.00 in0.0 mm
12:05 PM 83.1°F28.4°C 75.2°F24.0°C 77% 3.5 mph SE5.6 kmh SE 6.9 mph11.1 kmh 29.92 in1013.2 mb 0.00 in0.0 mm 0.00 in0.0 mm 0.00 in0.0 mm
12:00 PM 83.0°F28.3°C 75.1°F23.9°C 77% 3.6 mph SE5.8 kmh SE 6.4 mph10.3 kmh 29.92 in1013.2 mb 0.00 in0.0 mm 0.00 in0.0 mm 0.00 in0.0 mm
11:55 AM 83.1°F28.4°C 75.2°F24.0°C 77% 3.5 mph SE5.6 kmh SE 9.5 mph15.3 kmh 29.92 in1013.2 mb 0.00 in0.0 mm 0.00 in0.0 mm 0.00 in0.0 mm
11:50 AM 82.9°F28.3°C 75.4°F24.1°C 78% 2.9 mph SE4.7 kmh SE 5.6 mph9.0 kmh 29.92 in1013.2 mb 0.00 in0.0 mm 0.00 in0.0 mm 0.00 in0.0 mm
11:45 AM 82.8°F28.2°C 75.2°F24.0°C 78% 3.2 mph E5.1 kmh E 5.3 mph8.5 kmh 29.92 in1013.2 mb 0.00 in0.0 mm 0.00 in0.0 mm 0.00 in0.0 mm
11:40 AM 82.5°F28.1°C 74.5°F23.6°C 77% 2.8 mph SE4.5 kmh SE 5.8 mph9.3 kmh 29.92 in1013.2 mb 0.00 in0.0 mm 0.00 in0.0 mm 0.00 in0.0 mm
11:35 AM 82.5°F28.1°C 74.5°F23.6°C 77% 4.1 mph SE6.6 kmh SE 7.1 mph11.4 kmh 29.92 in1013.2 mb 0.00 in0.0 mm 0.00 in0.0 mm 0.00 in0.0 mm
11:30 AM 82.3°F27.9°C 74.8°F23.8°C 78% 3.2 mph SE5.1 kmh SE 6.1 mph9.8 kmh 29.93 in1013.5 mb 0.00 in0.0 mm 0.00 in0.0 mm 0.00 in0.0 mm
11:25 AM 82.1°F27.8°C 74.2°F23.4°C 77% 4.3 mph SE6.9 kmh SE 6.8 mph10.9 kmh 29.93 in1013.5 mb 0.00 in0.0 mm 0.00 in0.0 mm 0.00 in0.0 mm
11:20 AM 81.9°F27.7°C 74.0°F23.3°C 77% 4.3 mph SSE6.9 kmh SSE 8.3 mph13.4 kmh 29.93 in1013.5 mb 0.00 in0.0 mm 0.00 in0.0 mm 0.00 in0.0 mm
11:15 AM 81.8°F27.7°C 74.3°F23.5°C 78% 4.0 mph SE6.4 kmh SE 7.0 mph11.3 kmh 29.93 in1013.5 mb 0.00 in0.0 mm 0.00 in0.0 mm 0.00 in0.0 mm
11:10 AM 81.5°F27.5°C 74.0°F23.3°C 78% 3.1 mph SE5.0 kmh SE 5.2 mph8.4 kmh 29.93 in1013.5 mb 0.00 in0.0 mm 0.00 in0.0 mm 0.00 in0.0 mm
11:05 AM 81.3°F27.4°C 73.8°F23.2°C 78% 4.1 mph SE6.6 kmh SE 8.4 mph13.5 kmh 29.93 in1013.5 mb 0.00 in0.0 mm 0.00 in0.0 mm 0.00 in0.0 mm
11:00 AM 81.2°F27.3°C 73.7°F23.2°C 78% 4.7 mph SE7.6 kmh SE 8.8 mph14.2 kmh 29.93 in1013.5 mb 0.00 in0.0 mm 0.00 in0.0 mm 0.00 in0.0 mm
10:55 AM 81.1°F27.3°C 73.9°F23.3°C 79% 3.3 mph ESE5.3 kmh ESE 7.8 mph12.6 kmh 29.93 in1013.5 mb 0.00 in0.0 mm 0.00 in0.0 mm 0.00 in0.0 mm
10:50 AM 81.0°F27.2°C 73.1°F22.8°C 77% 4.1 mph ESE6.6 kmh ESE 7.2 mph11.6 kmh 29.93 in1013.5 mb 0.00 in0.0 mm 0.00 in0.0 mm 0.00 in0.0 mm
10:45 AM 80.7°F27.1°C 73.6°F23.1°C 79% 3.1 mph SE5.0 kmh SE 5.3 mph8.5 kmh 29.93 in1013.5 mb 0.00 in0.0 mm 0.00 in0.0 mm 0.00 in0.0 mm
10:40 AM 80.5°F26.9°C 73.4°F23.0°C 79% 3.5 mph E5.6 kmh E 6.7 mph10.8 kmh 29.93 in1013.5 mb 0.00 in0.0 mm 0.00 in0.0 mm 0.00 in0.0 mm
10:35 AM 80.2°F26.8°C 73.1°F22.8°C 79% 4.2 mph SE6.8 kmh SE 7.8 mph12.6 kmh 29.93 in1013.5 mb 0.00 in0.0 mm 0.00 in0.0 mm 0.00 in0.0 mm
10:30 AM 80.0°F26.7°C 72.9°F22.7°C 79% 4.5 mph SE7.2 kmh SE 7.9 mph12.7 kmh 29.93 in1013.5 mb 0.00 in0.0 mm 0.00 in0.0 mm 0.00 in0.0 mm
10:25 AM 79.4°F26.3°C 73.1°F22.8°C 81% 3.9 mph ESE6.3 kmh ESE 7.5 mph12.1 kmh 29.93 in1013.5 mb 0.00 in0.0 mm 0.00 in0.0 mm 0.00 in0.0 mm
10:20 AM 78.8°F26.0°C 72.5°F22.5°C 81% 3.9 mph SSE6.3 kmh SSE 7.9 mph12.7 kmh 29.93 in1013.5 mb 0.00 in0.0 mm 0.00 in0.0 mm 0.00 in0.0 mm
10:15 AM 78.2°F25.7°C 72.3°F22.4°C 82% 4.9 mph SE7.9 kmh SE 7.8 mph12.6 kmh 29.93 in1013.5 mb 0.00 in0.0 mm 0.00 in0.0 mm 0.00 in0.0 mm
10:10 AM 77.8°F25.4°C 72.5°F22.5°C 84% 3.1 mph SE5.0 kmh SE 5.1 mph8.2 kmh 29.93 in1013.5 mb 0.00 in0.0 mm 0.00 in0.0 mm 0.00 in0.0 mm
10:05 AM 77.2°F25.1°C 72.0°F22.2°C 84% 3.0 mph SE4.8 kmh SE 5.8 mph9.3 kmh 29.93 in1013.5 mb 0.00 in0.0 mm 0.00 in0.0 mm 0.00 in0.0 mm
10:00 AM 76.8°F24.9°C 71.6°F22.0°C 84% 3.8 mph ESE6.1 kmh ESE 9.2 mph14.8 kmh 29.93 in1013.5 mb 0.00 in0.0 mm 0.00 in0.0 mm 0.00 in0.0 mm
09:55 AM 76.5°F24.7°C 71.3°F21.8°C 84% 2.6 mph SE4.2 kmh SE 5.4 mph8.7 kmh 29.93 in1013.5 mb 0.00 in0.0 mm 0.00 in0.0 mm 0.00 in0.0 mm
09:50 AM 76.1°F24.5°C 71.3°F21.8°C 85% 2.2 mph ESE3.5 kmh ESE 5.3 mph8.5 kmh 29.93 in1013.5 mb 0.00 in0.0 mm 0.00 in0.0 mm 0.00 in0.0 mm
09:45 AM 75.9°F24.4°C 71.0°F21.7°C 85% 2.0 mph E3.2 kmh E 4.8 mph7.7 kmh 29.93 in1013.5 mb 0.00 in0.0 mm 0.00 in0.0 mm 0.00 in0.0 mm
09:40 AM 75.5°F24.2°C 71.0°F21.7°C 86% 1.9 mph SE3.1 kmh SE 6.0 mph9.7 kmh 29.93 in1013.5 mb 0.00 in0.0 mm 0.00 in0.0 mm 0.00 in0.0 mm
09:35 AM 75.2°F24.0°C 71.0°F21.7°C 87% 2.7 mph ESE4.3 kmh ESE 6.2 mph10.0 kmh 29.93 in1013.5 mb 0.00 in0.0 mm 0.00 in0.0 mm 0.00 in0.0 mm
09:30 AM 74.9°F23.8°C 70.7°F21.5°C 87% 1.6 mph ESE2.6 kmh ESE 3.5 mph5.6 kmh 29.93 in1013.5 mb 0.00 in0.0 mm 0.00 in0.0 mm 0.00 in0.0 mm
09:25 AM 74.5°F23.6°C 70.4°F21.3°C 87% 2.0 mph ENE3.2 kmh ENE 4.7 mph7.6 kmh 29.93 in1013.5 mb 0.00 in0.0 mm 0.00 in0.0 mm 0.00 in0.0 mm
09:20 AM 74.3°F23.5°C 70.5°F21.4°C 88% 2.3 mph SE3.7 kmh SE 5.7 mph9.2 kmh 29.93 in1013.5 mb 0.00 in0.0 mm 0.00 in0.0 mm 0.00 in0.0 mm
09:15 AM 74.0°F23.3°C 70.3°F21.3°C 88% 2.1 mph E3.4 kmh E 4.5 mph7.2 kmh 29.93 in1013.5 mb 0.00 in0.0 mm 0.00 in0.0 mm 0.00 in0.0 mm
09:10 AM 73.9°F23.3°C 70.1°F21.2°C 88% 3.0 mph ENE4.8 kmh ENE 4.3 mph6.9 kmh 29.93 in1013.5 mb 0.00 in0.0 mm 0.00 in0.0 mm 0.00 in0.0 mm
09:05 AM 73.8°F23.2°C 70.0°F21.1°C 88% 1.7 mph E2.7 kmh E 4.1 mph6.6 kmh 29.93 in1013.5 mb 0.00 in0.0 mm 0.00 in0.0 mm 0.00 in0.0 mm
09:00 AM 73.7°F23.2°C 69.9°F21.1°C 88% 1.9 mph ENE3.1 kmh ENE 5.0 mph8.0 kmh 29.93 in1013.5 mb 0.00 in0.0 mm 0.00 in0.0 mm 0.00 in0.0 mm
08:55 AM 73.5°F23.1°C 69.7°F20.9°C 88% 2.2 mph E3.5 kmh E 4.9 mph7.9 kmh 29.93 in1013.5 mb 0.00 in0.0 mm 0.00 in0.0 mm 0.00 in0.0 mm
08:50 AM 73.4°F23.0°C 69.6°F20.9°C 88% 1.9 mph E3.1 kmh E 4.0 mph6.4 kmh 29.93 in1013.5 mb 0.00 in0.0 mm 0.00 in0.0 mm 0.00 in0.0 mm
08:45 AM 73.3°F22.9°C 69.5°F20.8°C 88% 1.9 mph SE3.1 kmh SE 3.9 mph6.3 kmh 29.93 in1013.5 mb 0.00 in0.0 mm 0.00 in0.0 mm 0.00 in0.0 mm
08:40 AM 73.2°F22.9°C 69.4°F20.8°C 88% 1.9 mph ENE3.1 kmh ENE 3.9 mph6.3 kmh 29.93 in1013.5 mb 0.00 in0.0 mm 0.00 in0.0 mm 0.00 in0.0 mm
08:35 AM 73.0°F22.8°C 69.9°F21.1°C 90% 2.0 mph NE3.2 kmh NE 4.6 mph7.4 kmh 29.93 in1013.5 mb 0.00 in0.0 mm 0.00 in0.0 mm 0.00 in0.0 mm
08:30 AM 72.9°F22.7°C 69.8°F21.0°C 90% 1.7 mph E2.7 kmh E 5.4 mph8.7 kmh 29.93 in1013.5 mb 0.00 in0.0 mm 0.00 in0.0 mm 0.00 in0.0 mm
08:25 AM 72.8°F22.7°C 69.7°F20.9°C 90% 1.6 mph E2.6 kmh E 4.0 mph6.4 kmh 29.93 in1013.5 mb 0.00 in0.0 mm 0.00 in0.0 mm 0.00 in0.0 mm
08:20 AM 72.7°F22.6°C 69.6°F20.9°C 90% 1.9 mph E3.1 kmh E 3.3 mph5.3 kmh 29.93 in1013.5 mb 0.00 in0.0 mm 0.00 in0.0 mm 0.00 in0.0 mm
08:15 AM 72.6°F22.6°C 69.5°F20.8°C 90% 1.6 mph ESE2.6 kmh ESE 4.5 mph7.2 kmh 29.92 in1013.2 mb 0.00 in0.0 mm 0.00 in0.0 mm 0.00 in0.0 mm
08:10 AM 72.5°F22.5°C 69.4°F20.8°C 90% 1.9 mph E3.1 kmh E 4.7 mph7.6 kmh 29.92 in1013.2 mb 0.00 in0.0 mm 0.00 in0.0 mm 0.00 in0.0 mm
08:05 AM 72.4°F22.4°C 69.3°F20.7°C 90% 1.1 mph ENE1.8 kmh ENE 3.7 mph6.0 kmh 29.92 in1013.2 mb 0.00 in0.0 mm 0.00 in0.0 mm 0.00 in0.0 mm
08:00 AM 72.4°F22.4°C 69.3°F20.7°C 90% 3.2 mph E5.1 kmh E 6.7 mph10.8 kmh 29.92 in1013.2 mb 0.00 in0.0 mm 0.00 in0.0 mm 0.00 in0.0 mm
07:55 AM 72.3°F22.4°C 69.2°F20.7°C 90% 2.8 mph NE4.5 kmh NE 6.0 mph9.7 kmh 29.92 in1013.2 mb 0.00 in0.0 mm 0.00 in0.0 mm 0.00 in0.0 mm
07:50 AM 72.3°F22.4°C 69.2°F20.7°C 90% 2.6 mph NE4.2 kmh NE 5.8 mph9.3 kmh 29.92 in1013.2 mb 0.00 in0.0 mm 0.00 in0.0 mm 0.00 in0.0 mm
07:45 AM 72.3°F22.4°C 69.2°F20.7°C 90% 2.2 mph NE3.5 kmh NE 4.9 mph7.9 kmh 29.92 in1013.2 mb 0.00 in0.0 mm 0.00 in0.0 mm 0.00 in0.0 mm
07:40 AM 72.1°F22.3°C 69.3°F20.7°C 91% 2.1 mph E3.4 kmh E 5.2 mph8.4 kmh 29.92 in1013.2 mb 0.00 in0.0 mm 0.00 in0.0 mm 0.00 in0.0 mm
07:35 AM 72.0°F22.2°C 69.2°F20.7°C 91% 1.6 mph ENE2.6 kmh ENE 2.9 mph4.7 kmh 29.91 in1012.9 mb 0.00 in0.0 mm 0.00 in0.0 mm 0.00 in0.0 mm
07:30 AM 72.0°F22.2°C 69.2°F20.7°C 91% 1.8 mph ENE2.9 kmh ENE 3.6 mph5.8 kmh 29.92 in1013.2 mb 0.00 in0.0 mm 0.00 in0.0 mm 0.00 in0.0 mm
07:25 AM 71.8°F22.1°C 69.1°F20.6°C 91% 1.0 mph ENE1.6 kmh ENE 3.4 mph5.5 kmh 29.92 in1013.2 mb 0.00 in0.0 mm 0.00 in0.0 mm 0.00 in0.0 mm
07:20 AM 71.9°F22.2°C 69.2°F20.7°C 91% 0.5 mph N0.8 kmh N 2.5 mph4.0 kmh 29.91 in1012.9 mb 0.00 in0.0 mm 0.00 in0.0 mm 0.00 in0.0 mm
07:15 AM 71.9°F22.2°C 69.1°F20.6°C 91% 1.0 mph E1.6 kmh E 3.3 mph5.3 kmh 29.91 in1012.9 mb 0.00 in0.0 mm 0.00 in0.0 mm 0.00 in0.0 mm
07:10 AM 72.0°F22.2°C 69.2°F20.7°C 91% 1.4 mph ENE2.3 kmh ENE 2.4 mph3.9 kmh 29.91 in1012.9 mb 0.00 in0.0 mm 0.00 in0.0 mm 0.00 in0.0 mm
07:05 AM 71.9°F22.2°C 68.8°F20.4°C 90% 1.5 mph NE2.4 kmh NE 4.7 mph7.6 kmh 29.91 in1012.9 mb 0.00 in0.0 mm 0.00 in0.0 mm 0.00 in0.0 mm
07:00 AM 72.0°F22.2°C 68.9°F20.5°C 90% 1.0 mph ENE1.6 kmh ENE 2.6 mph4.2 kmh 29.91 in1012.9 mb 0.00 in0.0 mm 0.00 in0.0 mm 0.00 in0.0 mm
06:55 AM 72.0°F22.2°C 68.9°F20.5°C 90% 1.1 mph E1.8 kmh E 2.9 mph4.7 kmh 29.91 in1012.9 mb 0.00 in0.0 mm 0.00 in0.0 mm 0.00 in0.0 mm
06:50 AM 71.9°F22.2°C 68.8°F20.4°C 90% 0.3 mph ESE0.5 kmh ESE 2.4 mph3.9 kmh 29.91 in1012.9 mb 0.00 in0.0 mm 0.00 in0.0 mm 0.00 in0.0 mm
06:45 AM 72.0°F22.2°C 68.9°F20.5°C 90% 1.0 mph E1.6 kmh E 4.1 mph6.6 kmh 29.91 in1012.9 mb 0.00 in0.0 mm 0.00 in0.0 mm 0.00 in0.0 mm
06:40 AM 72.1°F22.3°C 69.0°F20.6°C 90% 1.3 mph ESE2.1 kmh ESE 3.2 mph5.1 kmh 29.91 in1012.9 mb 0.00 in0.0 mm 0.00 in0.0 mm 0.00 in0.0 mm
06:35 AM 72.1°F22.3°C 69.0°F20.6°C 90% 1.7 mph ESE2.7 kmh ESE 3.4 mph5.5 kmh 29.91 in1012.9 mb 0.00 in0.0 mm 0.00 in0.0 mm 0.00 in0.0 mm
06:30 AM 72.3°F22.4°C 69.2°F20.7°C 90% 1.7 mph SE2.7 kmh SE 5.0 mph8.0 kmh 29.91 in1012.9 mb 0.00 in0.0 mm 0.00 in0.0 mm 0.00 in0.0 mm
06:25 AM 72.4°F22.4°C 69.3°F20.7°C 90% 2.2 mph E3.5 kmh E 4.5 mph7.2 kmh 29.91 in1012.9 mb 0.00 in0.0 mm 0.00 in0.0 mm 0.00 in0.0 mm
06:20 AM 72.4°F22.4°C 69.3°F20.7°C 90% 1.4 mph E2.3 kmh E 3.3 mph5.3 kmh 29.91 in1012.9 mb 0.00 in0.0 mm 0.00 in0.0 mm 0.00 in0.0 mm
06:15 AM 72.3°F22.4°C 69.2°F20.7°C 90% 2.3 mph ENE3.7 kmh ENE 4.6 mph7.4 kmh 29.91 in1012.9 mb 0.00 in0.0 mm 0.00 in0.0 mm 0.00 in0.0 mm
06:10 AM 72.3°F22.4°C 69.2°F20.7°C 90% 1.9 mph ENE3.1 kmh ENE 3.4 mph5.5 kmh 29.91 in1012.9 mb 0.00 in0.0 mm 0.00 in0.0 mm 0.00 in0.0 mm
06:05 AM 72.3°F22.4°C 69.2°F20.7°C 90% 1.8 mph ENE2.9 kmh ENE 4.2 mph6.8 kmh 29.91 in1012.9 mb 0.00 in0.0 mm 0.00 in0.0 mm 0.00 in0.0 mm
06:00 AM 72.3°F22.4°C 69.2°F20.7°C 90% 1.9 mph NE3.1 kmh NE 3.9 mph6.3 kmh 29.90 in1012.5 mb 0.00 in0.0 mm 0.00 in0.0 mm 0.00 in0.0 mm
05:55 AM 72.3°F22.4°C 69.2°F20.7°C 90% 1.3 mph E2.1 kmh E 3.7 mph6.0 kmh 29.90 in1012.5 mb 0.00 in0.0 mm 0.00 in0.0 mm 0.00 in0.0 mm
05:50 AM 72.3°F22.4°C 69.2°F20.7°C 90% 1.5 mph ESE2.4 kmh ESE 3.9 mph6.3 kmh 29.90 in1012.5 mb 0.00 in0.0 mm 0.00 in0.0 mm 0.00 in0.0 mm
05:45 AM 72.3°F22.4°C 69.2°F20.7°C 90% 1.3 mph E2.1 kmh E 3.1 mph5.0 kmh 29.89 in1012.2 mb 0.00 in0.0 mm 0.00 in0.0 mm 0.00 in0.0 mm
05:40 AM 72.2°F22.3°C 68.5°F20.3°C 88% 1.2 mph ENE1.9 kmh ENE 3.4 mph5.5 kmh 29.89 in1012.2 mb 0.00 in0.0 mm 0.00 in0.0 mm 0.00 in0.0 mm
05:35 AM 72.3°F22.4°C 68.5°F20.3°C 88% 2.4 mph ESE3.9 kmh ESE 4.3 mph6.9 kmh 29.89 in1012.2 mb 0.00 in0.0 mm 0.00 in0.0 mm 0.00 in0.0 mm
05:30 AM 72.3°F22.4°C 68.5°F20.3°C 88% 2.3 mph ENE3.7 kmh ENE 5.3 mph8.5 kmh 29.89 in1012.2 mb 0.00 in0.0 mm 0.00 in0.0 mm 0.00 in0.0 mm
05:25 AM 72.3°F22.4°C 68.5°F20.3°C 88% 2.1 mph ENE3.4 kmh ENE 5.1 mph8.2 kmh 29.88 in1011.9 mb 0.00 in0.0 mm 0.00 in0.0 mm 0.00 in0.0 mm
05:20 AM 72.3°F22.4°C 68.5°F20.3°C 88% 1.8 mph SE2.9 kmh SE 4.6 mph7.4 kmh 29.88 in1011.9 mb 0.00 in0.0 mm 0.00 in0.0 mm 0.00 in0.0 mm
05:15 AM 72.3°F22.4°C 68.5°F20.3°C 88% 2.2 mph E3.5 kmh E 6.8 mph10.9 kmh 29.88 in1011.9 mb 0.00 in0.0 mm 0.00 in0.0 mm 0.00 in0.0 mm
05:10 AM 72.3°F22.4°C 68.5°F20.3°C 88% 2.2 mph ENE3.5 kmh ENE 4.5 mph7.2 kmh 29.88 in1011.9 mb 0.00 in0.0 mm 0.00 in0.0 mm 0.00 in0.0 mm
05:05 AM 72.3°F22.4°C 68.5°F20.3°C 88% 2.7 mph E4.3 kmh E 7.1 mph11.4 kmh 29.88 in1011.9 mb 0.00 in0.0 mm 0.00 in0.0 mm 0.00 in0.0 mm
05:00 AM 72.3°F22.4°C 68.5°F20.3°C 88% 1.7 mph NE2.7 kmh NE 4.3 mph6.9 kmh 29.88 in1011.9 mb 0.00 in0.0 mm 0.00 in0.0 mm 0.00 in0.0 mm
04:55 AM 72.3°F22.4°C 68.5°F20.3°C 88% 2.3 mph E3.7 kmh E 4.8 mph7.7 kmh 29.88 in1011.9 mb 0.00 in0.0 mm 0.00 in0.0 mm 0.00 in0.0 mm
04:50 AM 72.3°F22.4°C 68.5°F20.3°C 88% 1.1 mph ENE1.8 kmh ENE 3.3 mph5.3 kmh 29.89 in1012.2 mb 0.00 in0.0 mm 0.00 in0.0 mm 0.00 in0.0 mm
04:45 AM 72.2°F22.3°C 68.5°F20.3°C 88% 1.4 mph E2.3 kmh E 4.2 mph6.8 kmh 29.89 in1012.2 mb 0.00 in0.0 mm 0.00 in0.0 mm 0.00 in0.0 mm
04:40 AM 72.2°F22.3°C 68.4°F20.2°C 88% 0.3 mph E0.5 kmh E 1.9 mph3.1 kmh 29.89 in1012.2 mb 0.00 in0.0 mm 0.00 in0.0 mm 0.00 in0.0 mm
04:35 AM 72.3°F22.4°C 68.5°F20.3°C 88% 0.6 mph E1.0 kmh E 2.9 mph4.7 kmh 29.88 in1011.9 mb 0.00 in0.0 mm 0.00 in0.0 mm 0.00 in0.0 mm
04:30 AM 72.3°F22.4°C 68.5°F20.3°C 88% 1.8 mph E2.9 kmh E 4.1 mph6.6 kmh 29.88 in1011.9 mb 0.00 in0.0 mm 0.00 in0.0 mm 0.00 in0.0 mm
04:25 AM 72.3°F22.4°C 68.5°F20.3°C 88% 1.5 mph ENE2.4 kmh ENE 3.5 mph5.6 kmh 29.89 in1012.2 mb 0.00 in0.0 mm 0.00 in0.0 mm 0.00 in0.0 mm
04:20 AM 72.4°F22.4°C 68.6°F20.3°C 88% 1.0 mph ESE1.6 kmh ESE 2.3 mph3.7 kmh 29.89 in1012.2 mb 0.00 in0.0 mm 0.00 in0.0 mm 0.00 in0.0 mm
04:15 AM 72.5°F22.5°C 68.8°F20.4°C 88% 1.3 mph ENE2.1 kmh ENE 4.4 mph7.1 kmh 29.89 in1012.2 mb 0.00 in0.0 mm 0.00 in0.0 mm 0.00 in0.0 mm
04:10 AM 72.5°F22.5°C 68.8°F20.4°C 88% 0.9 mph ENE1.4 kmh ENE 3.2 mph5.1 kmh 29.89 in1012.2 mb 0.00 in0.0 mm 0.00 in0.0 mm 0.00 in0.0 mm
04:05 AM 72.5°F22.5°C 68.7°F20.4°C 88% 0.3 mph NE0.5 kmh NE 2.2 mph3.5 kmh 29.90 in1012.5 mb 0.00 in0.0 mm 0.00 in0.0 mm 0.00 in0.0 mm
04:00 AM 72.7°F22.6°C 68.9°F20.5°C 88% 1.1 mph ENE1.8 kmh ENE 3.2 mph5.1 kmh 29.90 in1012.5 mb 0.00 in0.0 mm 0.00 in0.0 mm 0.00 in0.0 mm
03:55 AM 72.7°F22.6°C 69.0°F20.6°C 88% 1.6 mph E2.6 kmh E 3.0 mph4.8 kmh 29.90 in1012.5 mb 0.00 in0.0 mm 0.00 in0.0 mm 0.00 in0.0 mm
03:50 AM 72.6°F22.6°C 68.8°F20.4°C 88% 1.3 mph E2.1 kmh E 2.9 mph4.7 kmh 29.90 in1012.5 mb 0.00 in0.0 mm 0.00 in0.0 mm 0.00 in0.0 mm
03:45 AM 72.6°F22.6°C 68.9°F20.5°C 88% 0.7 mph ENE1.1 kmh ENE 3.3 mph5.3 kmh 29.90 in1012.5 mb 0.00 in0.0 mm 0.00 in0.0 mm 0.00 in0.0 mm
03:40 AM 72.7°F22.6°C 68.9°F20.5°C 88% 0.5 mph E0.8 kmh E 2.2 mph3.5 kmh 29.90 in1012.5 mb 0.00 in0.0 mm 0.00 in0.0 mm 0.00 in0.0 mm
03:35 AM 72.8°F22.7°C 69.0°F20.6°C 88% 0.1 mph E0.2 kmh E 1.6 mph2.6 kmh 29.90 in1012.5 mb 0.00 in0.0 mm 0.00 in0.0 mm 0.00 in0.0 mm
03:30 AM 72.8°F22.7°C 69.0°F20.6°C 88% 0.2 mph ENE0.3 kmh ENE 1.6 mph2.6 kmh 29.90 in1012.5 mb 0.00 in0.0 mm 0.00 in0.0 mm 0.00 in0.0 mm
03:25 AM 73.0°F22.8°C 69.2°F20.7°C 88% 1.1 mph ENE1.8 kmh ENE 2.6 mph4.2 kmh 29.91 in1012.9 mb 0.00 in0.0 mm 0.00 in0.0 mm 0.00 in0.0 mm
03:20 AM 72.9°F22.7°C 69.1°F20.6°C 88% 0.6 mph ENE1.0 kmh ENE 2.1 mph3.4 kmh 29.90 in1012.5 mb 0.00 in0.0 mm 0.00 in0.0 mm 0.00 in0.0 mm
03:15 AM 72.9°F22.7°C 69.2°F20.7°C 88% 0.8 mph ENE1.3 kmh ENE 2.2 mph3.5 kmh 29.91 in1012.9 mb 0.00 in0.0 mm 0.00 in0.0 mm 0.00 in0.0 mm
03:10 AM 72.9°F22.7°C 69.2°F20.7°C 88% 0.7 mph N1.1 kmh N 2.7 mph4.3 kmh 29.91 in1012.9 mb 0.00 in0.0 mm 0.00 in0.0 mm 0.00 in0.0 mm
03:05 AM 73.0°F22.8°C 69.2°F20.7°C 88% 1.0 mph NE1.6 kmh NE 2.3 mph3.7 kmh 29.91 in1012.9 mb 0.00 in0.0 mm 0.00 in0.0 mm 0.00 in0.0 mm
03:00 AM 73.1°F22.8°C 69.3°F20.7°C 88% 1.3 mph E2.1 kmh E 3.1 mph5.0 kmh 29.91 in1012.9 mb 0.00 in0.0 mm 0.00 in0.0 mm 0.00 in0.0 mm
02:55 AM 73.0°F22.8°C 69.2°F20.7°C 88% 0.6 mph E1.0 kmh E 2.0 mph3.2 kmh 29.91 in1012.9 mb 0.00 in0.0 mm 0.00 in0.0 mm 0.00 in0.0 mm
02:50 AM 73.0°F22.8°C 69.3°F20.7°C 88% 0.1 mph NNE0.2 kmh NNE 2.1 mph3.4 kmh 29.91 in1012.9 mb 0.00 in0.0 mm 0.00 in0.0 mm 0.00 in0.0 mm
02:45 AM 73.2°F22.9°C 69.4°F20.8°C 88% 1.6 mph ENE2.6 kmh ENE 3.1 mph5.0 kmh 29.91 in1012.9 mb 0.00 in0.0 mm 0.00 in0.0 mm 0.00 in0.0 mm
02:40 AM 73.2°F22.9°C 69.4°F20.8°C 88% 1.9 mph E3.1 kmh E 3.4 mph5.5 kmh 29.91 in1012.9 mb 0.00 in0.0 mm 0.00 in0.0 mm 0.00 in0.0 mm
02:35 AM 73.2°F22.9°C 69.5°F20.8°C 88% 2.3 mph ENE3.7 kmh ENE 4.4 mph7.1 kmh 29.91 in1012.9 mb 0.00 in0.0 mm 0.00 in0.0 mm 0.00 in0.0 mm
02:30 AM 73.2°F22.9°C 69.4°F20.8°C 88% 0.6 mph NE1.0 kmh NE 3.4 mph5.5 kmh 29.92 in1013.2 mb 0.00 in0.0 mm 0.00 in0.0 mm 0.00 in0.0 mm
02:25 AM 73.2°F22.9°C 69.5°F20.8°C 88% 0.4 mph NE0.6 kmh NE 2.5 mph4.0 kmh 29.92 in1013.2 mb 0.00 in0.0 mm 0.00 in0.0 mm 0.00 in0.0 mm
02:20 AM 73.3°F22.9°C 69.6°F20.9°C 88% 0.9 mph N1.4 kmh N 2.9 mph4.7 kmh 29.92 in1013.2 mb 0.00 in0.0 mm 0.00 in0.0 mm 0.00 in0.0 mm
02:15 AM 73.4°F23.0°C 69.6°F20.9°C 88% 2.3 mph ENE3.7 kmh ENE 5.1 mph8.2 kmh 29.91 in1012.9 mb 0.00 in0.0 mm 0.00 in0.0 mm 0.00 in0.0 mm
02:10 AM 73.4°F23.0°C 70.3°F21.3°C 90% 1.4 mph NE2.3 kmh NE 3.2 mph5.1 kmh 29.91 in1012.9 mb 0.00 in0.0 mm 0.00 in0.0 mm 0.00 in0.0 mm
02:05 AM 73.4°F23.0°C 70.3°F21.3°C 90% 1.9 mph NE3.1 kmh NE 4.2 mph6.8 kmh 29.92 in1013.2 mb 0.00 in0.0 mm 0.00 in0.0 mm 0.00 in0.0 mm
02:00 AM 73.4°F23.0°C 70.3°F21.3°C 90% 1.4 mph ENE2.3 kmh ENE 3.3 mph5.3 kmh 29.91 in1012.9 mb 0.00 in0.0 mm 0.00 in0.0 mm 0.00 in0.0 mm
01:55 AM 73.5°F23.1°C 70.3°F21.3°C 90% 2.0 mph E3.2 kmh E 4.1 mph6.6 kmh 29.92 in1013.2 mb 0.00 in0.0 mm 0.00 in0.0 mm 0.00 in0.0 mm
01:50 AM 73.5°F23.1°C 70.7°F21.5°C 91% 0.5 mph E0.8 kmh E 2.7 mph4.3 kmh 29.93 in1013.5 mb 0.00 in0.0 mm 0.00 in0.0 mm 0.00 in0.0 mm
01:45 AM 73.6°F23.1°C 70.8°F21.6°C 91% 0.6 mph ESE1.0 kmh ESE 2.8 mph4.5 kmh 29.93 in1013.5 mb 0.00 in0.0 mm 0.00 in0.0 mm 0.00 in0.0 mm
01:40 AM 73.6°F23.1°C 70.8°F21.6°C 91% 1.8 mph ENE2.9 kmh ENE 3.4 mph5.5 kmh 29.93 in1013.5 mb 0.00 in0.0 mm 0.00 in0.0 mm 0.00 in0.0 mm
01:35 AM 73.6°F23.1°C 70.8°F21.6°C 91% 0.1 mph NE0.2 kmh NE 2.2 mph3.5 kmh 29.93 in1013.5 mb 0.00 in0.0 mm 0.00 in0.0 mm 0.00 in0.0 mm
01:30 AM 73.7°F23.2°C 70.9°F21.6°C 91% 0.4 mph N0.6 kmh N 3.2 mph5.1 kmh 29.93 in1013.5 mb 0.00 in0.0 mm 0.00 in0.0 mm 0.00 in0.0 mm
01:25 AM 73.8°F23.2°C 71.0°F21.7°C 91% 0.9 mph N1.4 kmh N 2.6 mph4.2 kmh 29.93 in1013.5 mb 0.00 in0.0 mm 0.00 in0.0 mm 0.00 in0.0 mm
01:20 AM 73.8°F23.2°C 71.0°F21.7°C 91% 0.6 mph ENE1.0 kmh ENE 2.7 mph4.3 kmh 29.93 in1013.5 mb 0.00 in0.0 mm 0.00 in0.0 mm 0.00 in0.0 mm
01:15 AM 73.8°F23.2°C 71.0°F21.7°C 91% 0.1 mph ENE0.2 kmh ENE 1.6 mph2.6 kmh 29.93 in1013.5 mb 0.00 in0.0 mm 0.00 in0.0 mm 0.00 in0.0 mm
01:10 AM 73.7°F23.2°C 70.9°F21.6°C 91% 0.4 mph ENE0.6 kmh ENE 2.6 mph4.2 kmh 29.94 in1013.9 mb 0.00 in0.0 mm 0.00 in0.0 mm 0.00 in0.0 mm
01:05 AM 73.8°F23.2°C 71.0°F21.7°C 91% 0.1 mph NNW0.2 kmh NNW 1.7 mph2.7 kmh 29.94 in1013.9 mb 0.00 in0.0 mm 0.00 in0.0 mm 0.00 in0.0 mm
01:00 AM 73.8°F23.2°C 71.0°F21.7°C 91% 0.1 mph NE0.2 kmh NE 2.1 mph3.4 kmh 29.94 in1013.9 mb 0.00 in0.0 mm 0.00 in0.0 mm 0.00 in0.0 mm
12:55 AM 73.9°F23.3°C 71.1°F21.7°C 91% 0.4 mph ENE0.6 kmh ENE 2.6 mph4.2 kmh 29.93 in1013.5 mb 0.00 in0.0 mm 0.00 in0.0 mm 0.00 in0.0 mm
12:50 AM 74.0°F23.3°C 71.2°F21.8°C 91% 1.0 mph N1.6 kmh N 2.8 mph4.5 kmh 29.94 in1013.9 mb 0.00 in0.0 mm 0.00 in0.0 mm 0.00 in0.0 mm
12:45 AM 74.0°F23.3°C 71.2°F21.8°C 91% 0.7 mph E1.1 kmh E 2.4 mph3.9 kmh 29.93 in1013.5 mb 0.00 in0.0 mm 0.00 in0.0 mm 0.00 in0.0 mm
12:40 AM 73.9°F23.3°C 71.2°F21.8°C 91% 1.1 mph ENE1.8 kmh ENE 4.0 mph6.4 kmh 29.93 in1013.5 mb 0.00 in0.0 mm 0.00 in0.0 mm 0.00 in0.0 mm
12:35 AM 73.8°F23.2°C 71.1°F21.7°C 91% 1.2 mph NE1.9 kmh NE 3.6 mph5.8 kmh 29.93 in1013.5 mb 0.00 in0.0 mm 0.00 in0.0 mm 0.00 in0.0 mm
12:30 AM 73.7°F23.2°C 70.9°F21.6°C 91% 0.1 mph N0.2 kmh N 1.1 mph1.8 kmh 29.94 in1013.9 mb 0.00 in0.0 mm 0.00 in0.0 mm 0.00 in0.0 mm
12:25 AM 73.4°F23.0°C 70.6°F21.4°C 91% Calm Calm 1.2 mph1.9 kmh 29.94 in1013.9 mb 0.00 in0.0 mm 0.00 in0.0 mm 0.00 in0.0 mm
12:20 AM 73.4°F23.0°C 70.7°F21.5°C 91% Calm Calm 1.4 mph2.3 kmh 29.94 in1013.9 mb 0.00 in0.0 mm 0.00 in0.0 mm 0.00 in0.0 mm
12:15 AM 73.5°F23.1°C 70.7°F21.5°C 91% Calm Calm 1.1 mph1.8 kmh 29.94 in1013.9 mb 0.00 in0.0 mm 0.00 in0.0 mm 0.00 in0.0 mm
12:10 AM 73.5°F23.1°C 70.7°F21.5°C 91% Calm Calm 1.1 mph1.8 kmh 29.94 in1013.9 mb 0.00 in0.0 mm 0.00 in0.0 mm 0.00 in0.0 mm
12:05 AM 73.6°F23.1°C 70.8°F21.6°C 91% Calm Calm -- 29.94 in1013.9 mb 0.00 in0.0 mm 0.00 in0.0 mm 0.00 in0.0 mm
12:00 AM 73.7°F23.2°C 70.9°F21.6°C 91% Calm Calm -- 29.94 in1013.9 mb 0.00 in0.0 mm 0.00 in0.0 mm 0.00 in0.0 mm